createdAt,value
2022-12-06T00:01:34.936Z,92.39
2022-12-06T00:04:07.894Z,92.54
2022-12-06T00:06:41.657Z,91.67
2022-12-06T00:09:17.864Z,92.33
2022-12-06T00:11:46.246Z,91.92
2022-12-06T00:14:15.553Z,91.97
2022-12-06T00:16:44.023Z,92.59
2022-12-06T00:19:15.606Z,92.18
2022-12-06T00:21:45.070Z,92.00
2022-12-06T00:24:16.294Z,92.88
2022-12-06T00:26:48.153Z,91.90
2022-12-06T00:29:19.614Z,92.02
2022-12-06T00:31:48.610Z,91.99
2022-12-06T00:34:18.616Z,91.54
2022-12-06T00:36:47.813Z,92.04
2022-12-06T00:39:18.388Z,92.23
2022-12-06T00:41:46.936Z,91.85
2022-12-06T00:44:15.516Z,92.37
2022-12-06T00:46:43.886Z,92.55
2022-12-06T00:49:13.851Z,91.84
2022-12-06T00:51:43.503Z,91.95
2022-12-06T00:54:16.158Z,92.07
2022-12-06T00:56:45.202Z,91.80
2022-12-06T00:59:13.457Z,91.57
2022-12-06T01:01:42.922Z,91.69
2022-12-06T01:04:11.446Z,92.12
2022-12-06T01:06:40.101Z,91.43
2022-12-06T01:09:15.231Z,92.13
2022-12-06T01:11:43.600Z,92.25
2022-12-06T01:14:11.909Z,92.04
2022-12-06T01:16:40.402Z,91.86
2022-12-06T01:19:09.194Z,91.27
2022-12-06T01:21:37.401Z,92.04
2022-12-06T01:24:06.293Z,91.90
2022-12-06T01:26:36.921Z,91.43
2022-12-06T01:29:05.356Z,91.51
2022-12-06T01:31:38.738Z,91.83
2022-12-06T01:34:08.593Z,92.32
2022-12-06T01:36:36.762Z,92.15
2022-12-06T01:39:10.333Z,91.49
2022-12-06T01:41:40.679Z,91.82
2022-12-06T01:44:40.994Z,91.87
2022-12-06T01:47:16.636Z,91.24
2022-12-06T01:49:49.042Z,91.68
2022-12-06T01:52:18.285Z,91.85
2022-12-06T01:54:46.897Z,91.97
2022-12-06T01:57:18.850Z,91.67
2022-12-06T01:59:47.768Z,91.33
2022-12-06T02:02:16.176Z,91.76
2022-12-06T02:04:45.659Z,91.18
2022-12-06T02:07:14.211Z,91.92
2022-12-06T02:09:43.476Z,92.00
2022-12-06T02:12:14.881Z,91.44
2022-12-06T02:14:48.422Z,91.74
2022-12-06T02:17:39.977Z,91.87
2022-12-06T02:20:27.671Z,91.73
2022-12-06T02:23:57.149Z,90.74
2022-12-06T02:26:37.414Z,90.80
2022-12-06T02:30:08.881Z,91.54
2022-12-06T02:32:54.466Z,91.42
2022-12-06T02:35:32.663Z,91.57
2022-12-06T02:38:13.016Z,91.25
2022-12-06T02:40:47.868Z,91.25
2022-12-06T02:43:20.139Z,91.21
2022-12-06T02:45:53.689Z,91.52
2022-12-06T02:48:26.966Z,91.87
2022-12-06T02:51:00.512Z,91.28
2022-12-06T02:53:32.125Z,91.59
2022-12-06T02:56:00.677Z,91.98
2022-12-06T02:58:28.866Z,91.13
2022-12-06T03:00:58.932Z,91.29
2022-12-06T03:04:12.420Z,90.96
2022-12-06T03:06:54.914Z,91.19
2022-12-06T03:09:50.521Z,91.17
2022-12-06T03:12:31.790Z,91.24
2022-12-06T03:15:10.810Z,91.75
2022-12-06T03:17:45.972Z,90.92
2022-12-06T03:20:22.408Z,91.46
2022-12-06T03:22:55.349Z,90.83
2022-12-06T03:25:24.073Z,91.52
2022-12-06T03:27:56.267Z,91.13
2022-12-06T03:30:25.345Z,91.35
2022-12-06T03:32:54.075Z,91.07
2022-12-06T03:35:29.935Z,90.95
2022-12-06T03:38:08.956Z,91.33
2022-12-06T03:40:41.411Z,90.68
2022-12-06T03:43:09.983Z,90.94
2022-12-06T03:45:44.708Z,91.23
2022-12-06T03:48:16.853Z,91.36
2022-12-06T03:50:55.546Z,91.23
2022-12-06T03:53:26.712Z,91.05
2022-12-06T03:55:54.920Z,91.06
2022-12-06T03:58:23.150Z,91.07
2022-12-06T04:00:51.341Z,91.21
2022-12-06T04:03:19.603Z,91.25
2022-12-06T04:05:49.211Z,90.67
2022-12-06T04:08:17.490Z,90.92
2022-12-06T04:10:45.801Z,91.02
2022-12-06T04:13:19.335Z,91.08
2022-12-06T04:15:48.242Z,90.68
2022-12-06T04:18:17.032Z,91.07
2022-12-06T04:21:07.235Z,90.58
2022-12-06T04:23:37.759Z,91.07
2022-12-06T04:26:09.232Z,91.35
2022-12-06T04:28:55.155Z,90.82
2022-12-06T04:31:41.450Z,91.15
2022-12-06T04:34:27.284Z,91.32
2022-12-06T04:37:15.157Z,90.87
2022-12-06T04:39:43.911Z,91.15
2022-12-06T04:42:30.720Z,91.21
2022-12-06T04:44:58.924Z,91.45
2022-12-06T04:47:27.441Z,90.84
2022-12-06T04:49:56.121Z,91.02
2022-12-06T04:52:25.664Z,91.02
2022-12-06T04:54:55.214Z,90.88
2022-12-06T04:57:23.402Z,90.39
2022-12-06T04:59:51.529Z,90.62
2022-12-06T05:02:19.882Z,90.71
2022-12-06T05:04:48.072Z,90.80
2022-12-06T05:07:16.331Z,90.90
2022-12-06T05:09:45.845Z,91.30
2022-12-06T05:12:14.171Z,91.10
2022-12-06T05:14:42.334Z,90.93
2022-12-06T05:17:10.561Z,91.05
2022-12-06T05:19:49.660Z,90.84
2022-12-06T05:22:17.850Z,90.79
2022-12-06T05:24:47.399Z,91.22
2022-12-06T05:27:15.826Z,91.36
2022-12-06T05:29:44.000Z,90.75
2022-12-06T05:32:12.161Z,90.91
2022-12-06T05:34:40.445Z,90.95
2022-12-06T05:37:08.845Z,91.07
2022-12-06T05:39:37.038Z,91.00
2022-12-06T05:42:06.804Z,91.02
2022-12-06T05:44:35.022Z,90.88
2022-12-06T05:47:03.297Z,90.92
2022-12-06T05:49:31.530Z,91.14
2022-12-06T05:52:03.788Z,91.40
2022-12-06T05:54:32.394Z,91.17
2022-12-06T05:57:00.632Z,91.32
2022-12-06T05:59:30.483Z,91.88
2022-12-06T06:01:58.757Z,91.31
2022-12-06T06:04:27.017Z,91.75
2022-12-06T06:06:55.192Z,91.49
2022-12-06T06:09:24.278Z,91.63
2022-12-06T06:11:52.415Z,91.80
2022-12-06T06:14:20.752Z,91.12
2022-12-06T06:16:50.470Z,91.72
2022-12-06T06:19:19.284Z,91.31
2022-12-06T06:21:49.170Z,91.28
2022-12-06T06:24:17.537Z,91.47
2022-12-06T06:26:45.753Z,91.78
2022-12-06T06:29:14.069Z,91.61
2022-12-06T06:31:42.379Z,91.96
2022-12-06T06:34:11.922Z,91.55
2022-12-06T06:36:45.555Z,91.42
2022-12-06T06:39:14.400Z,91.33
2022-12-06T06:41:42.606Z,91.26
2022-12-06T06:44:10.741Z,91.77
2022-12-06T06:46:39.159Z,91.62
2022-12-06T06:49:07.567Z,91.80
2022-12-06T06:51:37.121Z,91.04
2022-12-06T06:54:05.504Z,91.47
2022-12-06T06:56:33.717Z,91.68
2022-12-06T06:59:01.844Z,90.80
2022-12-06T07:01:30.122Z,90.65
2022-12-06T07:03:58.673Z,91.49
2022-12-06T07:06:26.922Z,91.63
2022-12-06T07:08:56.861Z,91.34
2022-12-06T07:11:25.007Z,91.28
2022-12-06T07:13:53.216Z,92.26
2022-12-06T07:16:21.556Z,91.01
2022-12-06T07:18:49.887Z,91.28
2022-12-06T07:21:18.397Z,91.20
2022-12-06T07:23:46.573Z,91.47
2022-12-06T07:26:18.879Z,91.46
2022-12-06T07:28:49.731Z,91.22
2022-12-06T07:31:20.830Z,90.56
2022-12-06T07:33:50.234Z,91.08
2022-12-06T07:36:18.501Z,91.54
2022-12-06T07:38:50.471Z,91.09
2022-12-06T07:41:40.569Z,90.69
2022-12-06T07:44:28.966Z,90.64
2022-12-06T07:46:57.862Z,90.47
2022-12-06T07:49:26.300Z,90.27
2022-12-06T07:51:55.926Z,91.15
2022-12-06T07:54:24.994Z,90.23
2022-12-06T07:56:56.183Z,91.14
2022-12-06T07:59:24.729Z,90.17
2022-12-06T08:01:53.573Z,90.28
2022-12-06T08:04:22.488Z,90.67
2022-12-06T08:06:50.838Z,89.96
2022-12-06T08:09:19.714Z,91.30
2022-12-06T08:11:47.923Z,90.22
2022-12-06T08:14:17.488Z,90.90
2022-12-06T08:16:45.650Z,90.63
2022-12-06T08:19:13.876Z,91.38
2022-12-06T08:21:42.086Z,92.01
2022-12-06T08:24:10.585Z,91.19
2022-12-06T08:26:38.862Z,92.02
2022-12-06T08:29:07.228Z,92.66
2022-12-06T08:31:37.048Z,92.27
2022-12-06T08:34:05.866Z,91.70
2022-12-06T08:36:34.174Z,92.44
2022-12-06T08:39:02.387Z,93.08
2022-12-06T08:41:48.526Z,91.99
2022-12-06T08:44:18.469Z,92.25
2022-12-06T08:46:48.333Z,91.91
2022-12-06T08:49:18.113Z,92.52
2022-12-06T08:51:47.895Z,92.72
2022-12-06T08:54:19.813Z,92.90
2022-12-06T08:56:48.242Z,93.59
2022-12-06T08:59:16.629Z,93.70
2022-12-06T09:01:47.713Z,93.61
2022-12-06T09:04:16.546Z,93.01
2022-12-06T09:06:46.468Z,92.96
2022-12-06T09:09:16.816Z,93.77
2022-12-06T09:11:46.707Z,93.86
2022-12-06T09:14:21.426Z,94.17
2022-12-06T09:16:53.745Z,94.03
2022-12-06T09:19:22.471Z,93.80
2022-12-06T09:21:50.629Z,93.50
2022-12-06T09:24:20.215Z,93.50
2022-12-06T09:26:49.468Z,93.55
2022-12-06T09:29:18.694Z,93.69
2022-12-06T09:31:47.631Z,93.30
2022-12-06T09:34:18.004Z,93.13
2022-12-06T09:36:50.279Z,93.49
2022-12-06T09:39:22.918Z,93.17
2022-12-06T09:42:41.659Z,93.50
2022-12-06T09:45:46.505Z,93.16
2022-12-06T09:48:56.800Z,93.47
2022-12-06T09:51:45.778Z,93.65
2022-12-06T09:54:33.850Z,94.04
2022-12-06T09:57:08.967Z,93.89
2022-12-06T09:59:48.672Z,93.77
2022-12-06T10:02:36.004Z,94.18
2022-12-06T10:05:31.429Z,94.01
2022-12-06T10:08:14.725Z,94.26
2022-12-06T10:10:57.551Z,93.57
2022-12-06T10:13:43.532Z,93.74
2022-12-06T10:16:23.448Z,93.66
2022-12-06T10:19:08.695Z,94.16
2022-12-06T10:21:53.823Z,93.99
2022-12-06T10:24:45.916Z,93.64
2022-12-06T10:27:22.600Z,93.53
2022-12-06T10:29:58.102Z,93.53
2022-12-06T10:32:52.041Z,93.94
2022-12-06T10:35:33.876Z,94.00
2022-12-06T10:38:13.871Z,93.65
2022-12-06T10:40:55.552Z,93.93
2022-12-06T10:43:30.681Z,93.97
2022-12-06T10:46:28.896Z,93.85
2022-12-06T10:49:07.427Z,94.00
2022-12-06T10:51:43.170Z,94.14
2022-12-06T10:54:24.726Z,93.58
2022-12-06T10:56:57.973Z,93.57
2022-12-06T10:59:34.194Z,93.41
2022-12-06T11:02:27.824Z,93.06
2022-12-06T11:05:03.178Z,92.41
2022-12-06T11:07:39.517Z,92.22
2022-12-06T11:10:19.956Z,92.55
2022-12-06T11:12:55.466Z,93.18
2022-12-06T11:15:28.793Z,92.51
2022-12-06T11:18:06.414Z,93.11
2022-12-06T11:20:40.689Z,92.00
2022-12-06T11:23:19.093Z,92.14
2022-12-06T11:26:11.247Z,91.51
2022-12-06T11:28:44.038Z,92.51
2022-12-06T11:31:24.004Z,92.39
2022-12-06T11:33:53.712Z,92.21
2022-12-06T11:36:23.648Z,91.38
2022-12-06T11:38:52.105Z,92.22
2022-12-06T11:41:25.333Z,90.43
2022-12-06T11:43:56.252Z,90.89
2022-12-06T11:46:25.419Z,90.70
2022-12-06T11:48:54.902Z,91.01
2022-12-06T11:51:26.427Z,90.67
2022-12-06T11:54:09.046Z,90.35
2022-12-06T11:56:39.773Z,91.12
2022-12-06T11:59:24.804Z,90.83
2022-12-06T12:01:56.069Z,90.21
2022-12-06T12:04:29.288Z,90.03
2022-12-06T12:07:01.431Z,89.88
2022-12-06T12:09:34.523Z,90.32
2022-12-06T12:12:06.573Z,89.89
2022-12-06T12:14:44.172Z,90.01
2022-12-06T12:17:20.600Z,89.48
2022-12-06T12:19:52.857Z,89.37
2022-12-06T12:22:34.532Z,89.34
2022-12-06T12:25:18.846Z,89.24
2022-12-06T12:27:52.115Z,89.52
2022-12-06T12:30:36.289Z,88.81
2022-12-06T12:33:21.601Z,88.75
2022-12-06T12:35:56.085Z,87.88
2022-12-06T12:38:35.145Z,88.72
2022-12-06T12:41:12.573Z,88.11
2022-12-06T12:43:41.418Z,88.30
2022-12-06T12:46:23.033Z,87.60
2022-12-06T12:48:53.030Z,87.37
2022-12-06T12:51:28.623Z,87.76
2022-12-06T12:53:59.986Z,88.35
2022-12-06T12:56:30.173Z,87.30
2022-12-06T12:58:58.912Z,87.20
2022-12-06T13:01:40.242Z,87.66
2022-12-06T13:04:32.558Z,87.03
2022-12-06T13:07:04.972Z,86.99
2022-12-06T13:09:47.005Z,86.81
2022-12-06T13:12:22.128Z,85.91
2022-12-06T13:14:57.177Z,85.76
2022-12-06T13:17:30.331Z,85.70
2022-12-06T13:19:58.850Z,85.65
2022-12-06T13:22:33.273Z,85.74
2022-12-06T13:25:06.341Z,85.29
2022-12-06T13:27:40.322Z,85.58
2022-12-06T13:30:17.199Z,84.92
2022-12-06T13:32:52.022Z,84.88
2022-12-06T13:35:27.470Z,84.96
2022-12-06T13:37:58.241Z,85.13
2022-12-06T13:40:48.222Z,85.12
2022-12-06T13:43:59.149Z,83.92
2022-12-06T13:46:33.428Z,84.23
2022-12-06T13:49:27.774Z,84.98
2022-12-06T13:51:55.946Z,84.32
2022-12-06T13:54:42.134Z,84.48
2022-12-06T13:57:31.823Z,83.63
2022-12-06T14:00:00.896Z,84.70
2022-12-06T14:02:54.156Z,84.62
2022-12-06T14:08:38.036Z,83.23
2022-12-06T14:11:19.894Z,83.52
2022-12-06T14:13:52.449Z,83.93
2022-12-06T14:16:30.664Z,83.81
2022-12-06T14:18:59.014Z,84.19
2022-12-06T14:21:34.832Z,83.68
2022-12-06T14:24:04.420Z,84.44
2022-12-06T14:26:35.292Z,84.92
2022-12-06T14:29:03.924Z,83.31
2022-12-06T14:31:40.246Z,84.78
2022-12-06T14:34:29.061Z,84.19
2022-12-06T14:37:00.260Z,84.75
2022-12-06T14:39:31.782Z,84.86
2022-12-06T14:42:19.483Z,84.37
2022-12-06T14:44:55.014Z,84.48
2022-12-06T14:47:25.669Z,84.37
2022-12-06T14:50:15.681Z,84.86
2022-12-06T14:53:03.859Z,85.75
2022-12-06T14:55:54.425Z,85.46
2022-12-06T14:58:25.581Z,84.70
2022-12-06T15:00:56.974Z,85.75
2022-12-06T15:03:33.178Z,84.94
2022-12-06T15:06:15.876Z,85.20
2022-12-06T15:08:51.826Z,86.06
2022-12-06T15:11:50.950Z,85.09
2022-12-06T15:14:22.134Z,85.45
2022-12-06T15:17:05.487Z,85.70
2022-12-06T15:19:36.371Z,86.11
2022-12-06T15:22:05.245Z,85.03
2022-12-06T15:24:35.080Z,85.55
2022-12-06T15:27:03.272Z,85.73
2022-12-06T15:29:31.619Z,85.64
2022-12-06T15:32:02.534Z,85.68
2022-12-06T15:34:35.023Z,85.94
2022-12-06T15:37:36.921Z,86.60
2022-12-06T15:39:53.999Z,86.46
2022-12-06T15:42:25.298Z,86.67
2022-12-06T15:44:53.583Z,85.76
2022-12-06T15:47:21.815Z,86.39
2022-12-06T15:49:51.866Z,86.38
2022-12-06T15:52:23.478Z,86.18
2022-12-06T15:54:53.313Z,87.16
2022-12-06T15:57:21.604Z,86.34
2022-12-06T15:59:49.813Z,86.62
2022-12-06T16:02:19.791Z,87.08
2022-12-06T16:04:50.946Z,86.60
2022-12-06T16:07:19.846Z,87.43
2022-12-06T16:09:49.134Z,86.76
2022-12-06T16:12:19.112Z,87.26
2022-12-06T16:14:47.302Z,87.84
2022-12-06T16:17:15.742Z,88.49
2022-12-06T16:20:12.833Z,88.22
2022-12-06T16:22:58.486Z,88.30
2022-12-06T16:25:26.672Z,88.16
2022-12-06T16:27:56.614Z,88.42
2022-12-06T16:30:33.899Z,88.64
2022-12-06T16:33:07.385Z,88.45
2022-12-06T16:35:36.203Z,88.58
2022-12-06T16:38:04.426Z,88.53
2022-12-06T16:40:33.884Z,88.86
2022-12-06T16:43:03.635Z,88.35
2022-12-06T16:45:35.274Z,89.19
2022-12-06T16:48:03.665Z,88.25
2022-12-06T16:50:33.803Z,88.94
2022-12-06T16:53:02.169Z,88.48
2022-12-06T16:55:30.639Z,88.61
2022-12-06T16:57:59.171Z,89.17
2022-12-06T17:00:28.732Z,88.50
2022-12-06T17:02:57.118Z,89.27
2022-12-06T17:05:27.453Z,89.28
2022-12-06T17:07:55.795Z,89.05
2022-12-06T17:10:24.129Z,89.02
2022-12-06T17:12:52.397Z,89.78
2022-12-06T17:15:22.550Z,89.43
2022-12-06T17:17:52.134Z,89.41
2022-12-06T17:20:20.945Z,89.71
2022-12-06T17:22:49.219Z,89.27
2022-12-06T17:25:18.158Z,90.15
2022-12-06T17:27:46.597Z,89.77
2022-12-06T17:30:17.956Z,89.78
2022-12-06T17:32:47.963Z,90.41
2022-12-06T17:35:17.751Z,90.39
2022-12-06T17:37:45.956Z,90.55
2022-12-06T17:40:15.765Z,90.41
2022-12-06T17:43:01.644Z,90.55
2022-12-06T17:45:30.062Z,90.66
2022-12-06T17:47:58.313Z,90.08
2022-12-06T17:50:28.412Z,90.10
2022-12-06T17:52:56.933Z,90.42
2022-12-06T17:55:25.240Z,90.57
2022-12-06T17:57:53.435Z,89.90
2022-12-06T18:00:22.512Z,90.16
2022-12-06T18:02:50.921Z,90.65
2022-12-06T18:05:19.336Z,90.13
2022-12-06T18:07:48.937Z,90.28
2022-12-06T18:10:17.460Z,90.35
2022-12-06T18:12:45.688Z,91.07
2022-12-06T18:15:27.861Z,90.66
2022-12-06T18:17:56.076Z,91.02
2022-12-06T18:20:24.487Z,90.98
2022-12-06T18:22:54.031Z,90.68
2022-12-06T18:25:22.251Z,90.74
2022-12-06T18:27:50.508Z,91.10
2022-12-06T18:30:19.094Z,90.73
2022-12-06T18:32:47.278Z,90.60
2022-12-06T18:35:15.739Z,91.50
2022-12-06T18:37:43.931Z,91.14
2022-12-06T18:40:13.963Z,90.94
2022-12-06T18:42:42.209Z,90.84
2022-12-06T18:45:11.515Z,91.32
2022-12-06T18:47:39.727Z,91.09
2022-12-06T18:50:10.499Z,91.42
2022-12-06T18:52:38.891Z,91.17
2022-12-06T18:55:08.933Z,91.43
2022-12-06T18:57:39.442Z,91.59
2022-12-06T19:00:09.620Z,91.33
2022-12-06T19:02:38.095Z,90.71
2022-12-06T19:05:07.733Z,91.21
2022-12-06T19:07:36.198Z,91.15
2022-12-06T19:10:05.136Z,91.84
2022-12-06T19:12:33.518Z,91.74
2022-12-06T19:15:03.251Z,91.52
2022-12-06T19:17:31.528Z,91.36
2022-12-06T19:19:59.963Z,91.53
2022-12-06T19:22:28.706Z,91.11
2022-12-06T19:24:57.291Z,91.73
2022-12-06T19:27:25.578Z,91.34
2022-12-06T19:29:54.045Z,91.84
2022-12-06T19:32:23.591Z,91.17
2022-12-06T19:34:52.396Z,92.24
2022-12-06T19:37:20.645Z,91.61
2022-12-06T19:39:48.924Z,91.59
2022-12-06T19:42:34.703Z,91.80
2022-12-06T19:45:03.001Z,91.40
2022-12-06T19:47:32.896Z,91.47
2022-12-06T19:50:01.644Z,92.05
2022-12-06T19:52:31.111Z,91.63
2022-12-06T19:54:59.564Z,91.59
2022-12-06T19:57:27.833Z,91.92
2022-12-06T19:59:56.553Z,91.59
2022-12-06T20:02:25.002Z,92.15
2022-12-06T20:04:54.701Z,92.19
2022-12-06T20:07:23.072Z,92.08
2022-12-06T20:09:51.363Z,92.65
2022-12-06T20:12:20.694Z,92.04
2022-12-06T20:14:50.779Z,91.96
2022-12-06T20:17:21.951Z,92.20
2022-12-06T20:19:50.255Z,92.48
2022-12-06T20:22:22.661Z,92.87
2022-12-06T20:24:50.959Z,92.19
2022-12-06T20:27:39.275Z,92.09
2022-12-06T20:30:09.510Z,92.14
2022-12-06T20:32:37.767Z,92.50
2022-12-06T20:35:06.506Z,92.68
2022-12-06T20:37:36.402Z,92.82
2022-12-06T20:40:05.894Z,92.40
2022-12-06T20:42:34.625Z,92.64
2022-12-06T20:45:02.884Z,92.64
2022-12-06T20:47:31.080Z,92.52
2022-12-06T20:50:00.533Z,92.41
2022-12-06T20:52:29.193Z,92.62
2022-12-06T20:54:58.873Z,92.91
2022-12-06T20:57:27.189Z,92.68
2022-12-06T20:59:55.564Z,92.46
2022-12-06T21:02:23.797Z,92.29
2022-12-06T21:04:52.100Z,92.68
2022-12-06T21:07:21.548Z,92.96
2022-12-06T21:09:49.772Z,92.89
2022-12-06T21:12:20.323Z,92.96
2022-12-06T21:14:48.618Z,93.30
2022-12-06T21:17:16.955Z,92.98
2022-12-06T21:19:45.233Z,93.30
2022-12-06T21:22:13.462Z,93.67
2022-12-06T21:24:41.747Z,93.55
2022-12-06T21:27:09.990Z,93.34
2022-12-06T21:29:42.584Z,93.48
2022-12-06T21:32:10.832Z,93.28
2022-12-06T21:34:45.838Z,93.44
2022-12-06T21:37:15.021Z,93.54
2022-12-06T21:39:46.304Z,93.18
2022-12-06T21:42:15.805Z,93.23
2022-12-06T21:44:45.563Z,93.46
2022-12-06T21:47:14.025Z,93.03
2022-12-06T21:49:42.732Z,93.31
2022-12-06T21:52:10.929Z,93.25
2022-12-06T21:54:39.148Z,93.41
2022-12-06T21:57:07.327Z,93.48
2022-12-06T21:59:35.587Z,93.28
2022-12-06T22:02:05.243Z,93.21
2022-12-06T22:04:33.530Z,93.47
2022-12-06T22:07:01.684Z,93.49
2022-12-06T22:09:30.008Z,93.13
2022-12-06T22:11:59.775Z,93.17
2022-12-06T22:14:27.999Z,92.83
2022-12-06T22:16:56.320Z,93.38
2022-12-06T22:19:26.031Z,93.19
2022-12-06T22:21:55.908Z,93.13
2022-12-06T22:24:25.385Z,93.83
2022-12-06T22:26:54.547Z,93.72
2022-12-06T22:29:22.832Z,93.29
2022-12-06T22:31:51.339Z,93.58
2022-12-06T22:34:19.662Z,93.36
2022-12-06T22:36:49.261Z,93.62
2022-12-06T22:39:18.572Z,93.16
2022-12-06T22:41:46.872Z,93.59
2022-12-06T22:44:15.056Z,93.65
2022-12-06T22:46:43.331Z,93.94
2022-12-06T22:49:17.736Z,93.57
2022-12-06T22:51:46.349Z,93.30
2022-12-06T22:54:16.453Z,93.87
2022-12-06T22:56:48.439Z,93.83
2022-12-06T22:59:17.238Z,93.58
2022-12-06T23:01:45.728Z,93.63
2022-12-06T23:04:14.099Z,93.64
2022-12-06T23:06:42.466Z,94.29
2022-12-06T23:09:17.390Z,93.66
2022-12-06T23:11:45.817Z,94.19
2022-12-06T23:14:14.155Z,94.71
2022-12-06T23:16:43.723Z,94.02
2022-12-06T23:19:12.286Z,93.56
2022-12-06T23:21:42.441Z,93.69
2022-12-06T23:24:13.980Z,94.37
2022-12-06T23:26:46.881Z,94.09
2022-12-06T23:29:17.001Z,93.95
2022-12-06T23:31:47.047Z,93.82
2022-12-06T23:34:18.384Z,93.94
2022-12-06T23:36:46.906Z,93.30
2022-12-06T23:39:15.537Z,93.88
2022-12-06T23:41:45.674Z,93.61
2022-12-06T23:44:14.570Z,93.35
2022-12-06T23:46:45.769Z,92.98
2022-12-06T23:49:18.429Z,94.00
2022-12-06T23:51:47.627Z,93.44
2022-12-06T23:54:18.099Z,93.97
2022-12-06T23:56:50.797Z,93.74
2022-12-06T23:59:19.450Z,93.82
